sensor_id;sensor_type;location;lat;lon;timestamp;pressure;altitude;pressure_sealevel;temperature;humidity
84863;BME280;75117;43.224;76.776;2024-02-26T00:00:04;93740.03;;;-9.46;76.07
84863;BME280;75117;43.224;76.776;2024-02-26T00:00:20;93735.69;;;-9.46;77.10
84863;BME280;75117;43.224;76.776;2024-02-26T00:00:33;93737.28;;;-9.44;76.33
84863;BME280;75117;43.224;76.776;2024-02-26T00:00:46;93732.97;;;-9.44;76.54
84863;BME280;75117;43.224;76.776;2024-02-26T00:00:59;93735.69;;;-9.46;77.49
84863;BME280;75117;43.224;76.776;2024-02-26T00:01:11;93740.44;;;-9.42;76.79
84863;BME280;75117;43.224;76.776;2024-02-26T00:01:24;93735.31;;;-9.42;76.86
84863;BME280;75117;43.224;76.776;2024-02-26T00:01:36;93733.34;;;-9.40;77.58
84863;BME280;75117;43.224;76.776;2024-02-26T00:01:49;93733.34;;;-9.40;77.10
84863;BME280;75117;43.224;76.776;2024-02-26T00:02:02;93740.84;;;-9.39;76.88
84863;BME280;75117;43.224;76.776;2024-02-26T00:02:14;93735.72;;;-9.39;76.71
84863;BME280;75117;43.224;76.776;2024-02-26T00:02:26;93742.78;;;-9.41;76.75
84863;BME280;75117;43.224;76.776;2024-02-26T00:02:39;93734.16;;;-9.40;76.80
84863;BME280;75117;43.224;76.776;2024-02-26T00:02:52;93743.78;;;-9.35;77.65
84863;BME280;75117;43.224;76.776;2024-02-26T00:03:04;93734.53;;;-9.36;76.90
84863;BME280;75117;43.224;76.776;2024-02-26T00:03:16;93736.91;;;-9.35;77.31
84863;BME280;75117;43.224;76.776;2024-02-26T00:03:29;93739.25;;;-9.33;77.42
84863;BME280;75117;43.224;76.776;2024-02-26T00:03:41;93734.16;;;-9.33;76.75
84863;BME280;75117;43.224;76.776;2024-02-26T00:03:54;93734.94;;;-9.33;76.46
84863;BME280;75117;43.224;76.776;2024-02-26T00:04:11;93739.66;;;-9.30;77.28
84863;BME280;75117;43.224;76.776;2024-02-26T00:04:25;93738.09;;;-9.31;76.93
84863;BME280;75117;43.224;76.776;2024-02-26T00:04:37;93743.22;;;-9.31;76.86
84863;BME280;75117;43.224;76.776;2024-02-26T00:04:49;93742.81;;;-9.28;76.80
84863;BME280;75117;43.224;76.776;2024-02-26T00:05:02;93738.69;;;-9.29;77.07
84863;BME280;75117;43.224;76.776;2024-02-26T00:05:14;93751.47;;;-9.29;77.02
84863;BME280;75117;43.224;76.776;2024-02-26T00:05:27;93749.69;;;-9.28;76.83
84863;BME280;75117;43.224;76.776;2024-02-26T00:05:39;93739.66;;;-9.30;76.01
84863;BME280;75117;43.224;76.776;2024-02-26T00:05:51;93747.34;;;-9.30;76.64
84863;BME280;75117;43.224;76.776;2024-02-26T00:06:04;93737.09;;;-9.30;77.20
84863;BME280;75117;43.224;76.776;2024-02-26T00:06:17;93743.00;;;-9.29;76.00
84863;BME280;75117;43.224;76.776;2024-02-26T00:06:30;93740.66;;;-9.31;76.48
84863;BME280;75117;43.224;76.776;2024-02-26T00:06:43;93743.00;;;-9.29;76.38
84863;BME280;75117;43.224;76.776;2024-02-26T00:06:55;93743.00;;;-9.29;77.36
84863;BME280;75117;43.224;76.776;2024-02-26T00:07:08;93755.00;;;-9.30;77.03
84863;BME280;75117;43.224;76.776;2024-02-26T00:07:20;93735.13;;;-9.34;76.58
84863;BME280;75117;43.224;76.776;2024-02-26T00:07:32;93728.06;;;-9.39;77.27
84863;BME280;75117;43.224;76.776;2024-02-26T00:07:45;93738.88;;;-9.30;76.78
84863;BME280;75117;43.224;76.776;2024-02-26T00:07:58;93708.75;;;-9.55;76.74
84863;BME280;75117;43.224;76.776;2024-02-26T00:08:11;93742.22;;;-9.30;76.34
84863;BME280;75117;43.224;76.776;2024-02-26T00:08:23;93718.22;;;-9.42;76.62
84863;BME280;75117;43.224;76.776;2024-02-26T00:08:36;93740.44;;;-9.29;76.87
84863;BME280;75117;43.224;76.776;2024-02-26T00:08:48;93738.69;;;-9.29;77.20
84863;BME280;75117;43.224;76.776;2024-02-26T00:09:01;93737.50;;;-9.33;77.03
84863;BME280;75117;43.224;76.776;2024-02-26T00:09:14;93741.44;;;-9.30;76.78
84863;BME280;75117;43.224;76.776;2024-02-26T00:09:27;93750.66;;;-9.29;76.48
84863;BME280;75117;43.224;76.776;2024-02-26T00:09:39;93732.59;;;-9.34;76.41
84863;BME280;75117;43.224;76.776;2024-02-26T00:09:51;93738.88;;;-9.30;76.96
84863;BME280;75117;43.224;76.776;2024-02-26T00:10:04;93735.34;;;-9.29;77.18
84863;BME280;75117;43.224;76.776;2024-02-26T00:10:17;93733.00;;;-9.31;76.91
84863;BME280;75117;43.224;76.776;2024-02-26T00:10:29;93744.16;;;-9.32;77.33
84863;BME280;75117;43.224;76.776;2024-02-26T00:10:41;93741.81;;;-9.27;76.38
84863;BME280;75117;43.224;76.776;2024-02-26T00:10:54;93716.06;;;-9.38;76.79
84863;BME280;75117;43.224;76.776;2024-02-26T00:11:07;93746.75;;;-9.25;76.84
84863;BME280;75117;43.224;76.776;2024-02-26T00:11:19;93743.41;;;-9.26;77.10
84863;BME280;75117;43.224;76.776;2024-02-26T00:11:31;93738.09;;;-9.24;76.49
84863;BME280;75117;43.224;76.776;2024-02-26T00:11:44;93732.41;;;-9.26;76.94
84863;BME280;75117;43.224;76.776;2024-02-26T00:11:56;93732.19;;;-9.25;77.13
84863;BME280;75117;43.224;76.776;2024-02-26T00:12:09;93733.97;;;-9.25;77.43
84863;BME280;75117;43.224;76.776;2024-02-26T00:12:22;93740.25;;;-9.21;77.79
84863;BME280;75117;43.224;76.776;2024-02-26T00:12:34;93732.38;;;-9.20;77.49
84863;BME280;75117;43.224;76.776;2024-02-26T00:12:47;93739.84;;;-9.18;77.82
84863;BME280;75117;43.224;76.776;2024-02-26T00:12:59;93737.28;;;-9.18;77.93
84863;BME280;75117;43.224;76.776;2024-02-26T00:13:12;93712.34;;;-9.29;77.32
84863;BME280;75117;43.224;76.776;2024-02-26T00:13:24;93731.41;;;-9.18;77.10
84863;BME280;75117;43.224;76.776;2024-02-26T00:13:37;93732.19;;;-9.18;76.73
84863;BME280;75117;43.224;76.776;2024-02-26T00:13:49;93713.69;;;-9.27;76.92
84863;BME280;75117;43.224;76.776;2024-02-26T00:14:01;93724.34;;;-9.16;76.77
84863;BME280;75117;43.224;76.776;2024-02-26T00:14:14;93728.47;;;-9.15;76.60
84863;BME280;75117;43.224;76.776;2024-02-26T00:14:26;93733.38;;;-9.14;77.17
84863;BME280;75117;43.224;76.776;2024-02-26T00:14:39;93733.38;;;-9.14;77.34
84863;BME280;75117;43.224;76.776;2024-02-26T00:14:53;93733.38;;;-9.14;76.69
84863;BME280;75117;43.224;76.776;2024-02-26T00:15:06;93737.50;;;-9.13;76.61
84863;BME280;75117;43.224;76.776;2024-02-26T00:15:19;93734.56;;;-9.16;76.68
84863;BME280;75117;43.224;76.776;2024-02-26T00:15:31;93733.56;;;-9.15;76.79
84863;BME280;75117;43.224;76.776;2024-02-26T00:15:44;93731.03;;;-9.15;76.82
84863;BME280;75117;43.224;76.776;2024-02-26T00:15:56;93730.63;;;-9.12;77.50
84863;BME280;75117;43.224;76.776;2024-02-26T00:16:08;93735.16;;;-9.14;76.77
84863;BME280;75117;43.224;76.776;2024-02-26T00:16:21;93728.47;;;-9.15;77.44
84863;BME280;75117;43.224;76.776;2024-02-26T00:16:33;93739.88;;;-9.11;77.28
84863;BME280;75117;43.224;76.776;2024-02-26T00:16:46;93717.44;;;-9.23;76.88
84863;BME280;75117;43.224;76.776;2024-02-26T00:16:59;93731.41;;;-9.12;77.41
84863;BME280;75117;43.224;76.776;2024-02-26T00:17:12;93736.34;;;-9.10;76.65
84863;BME280;75117;43.224;76.776;2024-02-26T00:17:24;93740.44;;;-9.09;76.59
84863;BME280;75117;43.224;76.776;2024-02-26T00:17:37;93728.09;;;-9.12;76.85
84863;BME280;75117;43.224;76.776;2024-02-26T00:17:49;93688.94;;;-9.39;76.24
84863;BME280;75117;43.224;76.776;2024-02-26T00:18:02;93729.25;;;-9.15;76.64
84863;BME280;75117;43.224;76.776;2024-02-26T00:18:14;93740.06;;;-9.13;75.90
84863;BME280;75117;43.224;76.776;2024-02-26T00:18:26;93720.97;;;-9.24;76.15
84863;BME280;75117;43.224;76.776;2024-02-26T00:18:39;93738.47;;;-9.14;76.14
84863;BME280;75117;43.224;76.776;2024-02-26T00:18:51;93741.81;;;-9.13;75.97
84863;BME280;75117;43.224;76.776;2024-02-26T00:19:04;93743.59;;;-9.14;76.78
84863;BME280;75117;43.224;76.776;2024-02-26T00:19:16;93748.91;;;-9.15;76.75
84863;BME280;75117;43.224;76.776;2024-02-26T00:19:28;93737.69;;;-9.14;76.36
84863;BME280;75117;43.224;76.776;2024-02-26T00:19:41;93736.91;;;-9.15;75.62
84863;BME280;75117;43.224;76.776;2024-02-26T00:19:53;93738.09;;;-9.17;76.76
84863;BME280;75117;43.224;76.776;2024-02-26T00:20:06;93735.94;;;-9.14;76.03
84863;BME280;75117;43.224;76.776;2024-02-26T00:20:20;93726.69;;;-9.28;75.84
84863;BME280;75117;43.224;76.776;2024-02-26T00:20:33;93725.69;;;-9.27;76.11
84863;BME280;75117;43.224;76.776;2024-02-26T00:20:45;93740.63;;;-9.17;76.48
84863;BME280;75117;43.224;76.776;2024-02-26T00:20:57;93743.19;;;-9.17;76.13
84863;BME280;75117;43.224;76.776;2024-02-26T00:21:11;93742.41;;;-9.18;75.52
84863;BME280;75117;43.224;76.776;2024-02-26T00:21:23;93747.53;;;-9.18;76.48
84863;BME280;75117;43.224;76.776;2024-02-26T00:21:40;93739.47;;;-9.22;76.90
84863;BME280;75117;43.224;76.776;2024-02-26T00:21:54;93724.31;;;-9.30;76.78
84863;BME280;75117;43.224;76.776;2024-02-26T00:22:07;93745.97;;;-9.19;76.25
84863;BME280;75117;43.224;76.776;2024-02-26T00:22:20;93741.63;;;-9.18;76.52
84863;BME280;75117;43.224;76.776;2024-02-26T00:22:34;93716.84;;;-9.31;76.64
84863;BME280;75117;43.224;76.776;2024-02-26T00:22:46;93740.06;;;-9.20;76.41
84863;BME280;75117;43.224;76.776;2024-02-26T00:22:59;93740.25;;;-9.21;77.14
84863;BME280;75117;43.224;76.776;2024-02-26T00:23:11;93738.28;;;-9.19;77.00
84863;BME280;75117;43.224;76.776;2024-02-26T00:23:26;93742.41;;;-9.18;77.05
84863;BME280;75117;43.224;76.776;2024-02-26T00:23:39;93734.94;;;-9.20;76.90
84863;BME280;75117;43.224;76.776;2024-02-26T00:23:53;93735.72;;;-9.19;76.32
84863;BME280;75117;43.224;76.776;2024-02-26T00:24:05;93735.72;;;-9.19;76.30
84863;BME280;75117;43.224;76.776;2024-02-26T00:24:18;93742.41;;;-9.18;76.24
84863;BME280;75117;43.224;76.776;2024-02-26T00:24:30;93738.28;;;-9.19;76.15
84863;BME280;75117;43.224;76.776;2024-02-26T00:24:43;93739.47;;;-9.22;76.21
84863;BME280;75117;43.224;76.776;2024-02-26T00:24:55;93728.44;;;-9.22;76.68
84863;BME280;75117;43.224;76.776;2024-02-26T00:25:08;93739.47;;;-9.22;77.09
84863;BME280;75117;43.224;76.776;2024-02-26T00:25:20;93739.47;;;-9.22;77.25
84863;BME280;75117;43.224;76.776;2024-02-26T00:25:32;93734.75;;;-9.25;76.75
84863;BME280;75117;43.224;76.776;2024-02-26T00:25:45;93736.94;;;-9.22;76.96
84863;BME280;75117;43.224;76.776;2024-02-26T00:25:57;93735.75;;;-9.26;77.24
84863;BME280;75117;43.224;76.776;2024-02-26T00:26:10;93704.06;;;-9.44;76.56
84863;BME280;75117;43.224;76.776;2024-02-26T00:26:22;93741.06;;;-9.21;77.01
84863;BME280;75117;43.224;76.776;2024-02-26T00:26:35;93737.88;;;-9.23;76.93
84863;BME280;75117;43.224;76.776;2024-02-26T00:26:47;93743.78;;;-9.22;76.61
84863;BME280;75117;43.224;76.776;2024-02-26T00:27:04;93726.88;;;-9.30;76.58
84863;BME280;75117;43.224;76.776;2024-02-26T00:27:17;93737.72;;;-9.21;76.64
84863;BME280;75117;43.224;76.776;2024-02-26T00:27:29;93736.69;;;-9.27;77.11
84863;BME280;75117;43.224;76.776;2024-02-26T00:27:42;93746.16;;;-9.21;76.48
84863;BME280;75117;43.224;76.776;2024-02-26T00:27:55;93745.38;;;-9.21;76.20
84863;BME280;75117;43.224;76.776;2024-02-26T00:28:08;93736.94;;;-9.22;76.96
84863;BME280;75117;43.224;76.776;2024-02-26T00:28:21;93726.47;;;-9.33;76.79
84863;BME280;75117;43.224;76.776;2024-02-26T00:28:34;93740.66;;;-9.24;76.38
84863;BME280;75117;43.224;76.776;2024-02-26T00:28:46;93746.94;;;-9.20;76.76
84863;BME280;75117;43.224;76.776;2024-02-26T00:28:58;93736.13;;;-9.22;76.52
84863;BME280;75117;43.224;76.776;2024-02-26T00:29:11;93733.97;;;-9.25;77.44
84863;BME280;75117;43.224;76.776;2024-02-26T00:29:23;93736.53;;;-9.25;76.87
84863;BME280;75117;43.224;76.776;2024-02-26T00:29:36;93743.41;;;-9.19;77.18
84863;BME280;75117;43.224;76.776;2024-02-26T00:29:48;93743.78;;;-9.22;76.69
84863;BME280;75117;43.224;76.776;2024-02-26T00:30:01;93758.75;;;-9.19;77.19
84863;BME280;75117;43.224;76.776;2024-02-26T00:30:13;93741.63;;;-9.18;76.89
84863;BME280;75117;43.224;76.776;2024-02-26T00:30:26;93742.63;;;-9.20;77.19
84863;BME280;75117;43.224;76.776;2024-02-26T00:30:39;93731.78;;;-9.28;76.45
84863;BME280;75117;43.224;76.776;2024-02-26T00:30:51;93739.69;;;-9.16;76.58
84863;BME280;75117;43.224;76.776;2024-02-26T00:31:07;93729.03;;;-9.27;76.83
84863;BME280;75117;43.224;76.776;2024-02-26T00:31:20;93746.75;;;-9.18;76.57
84863;BME280;75117;43.224;76.776;2024-02-26T00:31:32;93734.38;;;-9.22;76.57
84863;BME280;75117;43.224;76.776;2024-02-26T00:31:45;93740.25;;;-9.14;76.68
84863;BME280;75117;43.224;76.776;2024-02-26T00:31:57;93732.38;;;-9.20;77.46
84863;BME280;75117;43.224;76.776;2024-02-26T00:32:10;93728.06;;;-9.26;76.36
84863;BME280;75117;43.224;76.776;2024-02-26T00:32:23;93742.81;;;-9.14;76.56
84863;BME280;75117;43.224;76.776;2024-02-26T00:32:35;93743.03;;;-9.16;77.43
84863;BME280;75117;43.224;76.776;2024-02-26T00:32:48;93740.88;;;-9.12;77.14
84863;BME280;75117;43.224;76.776;2024-02-26T00:33:00;93740.06;;;-9.13;77.35
84863;BME280;75117;43.224;76.776;2024-02-26T00:33:16;93745.97;;;-9.12;77.19
84863;BME280;75117;43.224;76.776;2024-02-26T00:33:29;93746.56;;;-9.10;77.48
84863;BME280;75117;43.224;76.776;2024-02-26T00:33:41;93744.56;;;-9.08;77.80
84863;BME280;75117;43.224;76.776;2024-02-26T00:33:54;93738.88;;;-9.10;77.38
84863;BME280;75117;43.224;76.776;2024-02-26T00:34:06;93731.22;;;-9.17;77.13
84863;BME280;75117;43.224;76.776;2024-02-26T00:34:18;93743.63;;;-9.07;76.67
84863;BME280;75117;43.224;76.776;2024-02-26T00:34:31;93746.19;;;-9.07;76.87
84863;BME280;75117;43.224;76.776;2024-02-26T00:34:43;93727.69;;;-9.16;76.93
84863;BME280;75117;43.224;76.776;2024-02-26T00:34:56;93742.84;;;-9.08;76.80
84863;BME280;75117;43.224;76.776;2024-02-26T00:35:08;93743.19;;;-9.04;76.87
84863;BME280;75117;43.224;76.776;2024-02-26T00:35:21;93753.63;;;-9.06;76.90
84863;BME280;75117;43.224;76.776;2024-02-26T00:35:34;93749.09;;;-9.04;77.19
84863;BME280;75117;43.224;76.776;2024-02-26T00:35:46;93736.53;;;-9.12;76.48
84863;BME280;75117;43.224;76.776;2024-02-26T00:35:58;93753.44;;;-9.04;77.30
84863;BME280;75117;43.224;76.776;2024-02-26T00:36:11;93750.88;;;-9.04;76.29
84863;BME280;75117;43.224;76.776;2024-02-26T00:36:23;93756.78;;;-9.04;76.70
84863;BME280;75117;43.224;76.776;2024-02-26T00:36:36;93747.75;;;-9.06;76.88
84863;BME280;75117;43.224;76.776;2024-02-26T00:36:48;93755.41;;;-9.06;76.65
84863;BME280;75117;43.224;76.776;2024-02-26T00:37:01;93742.22;;;-9.10;77.13
84863;BME280;75117;43.224;76.776;2024-02-26T00:37:14;93746.19;;;-9.07;76.78
84863;BME280;75117;43.224;76.776;2024-02-26T00:37:26;93751.28;;;-9.07;77.36
84863;BME280;75117;43.224;76.776;2024-02-26T00:37:39;93761.50;;;-9.07;76.64
84863;BME280;75117;43.224;76.776;2024-02-26T00:37:51;93762.47;;;-9.08;76.70
84863;BME280;75117;43.224;76.776;2024-02-26T00:38:04;93746.75;;;-9.05;76.57
84863;BME280;75117;43.224;76.776;2024-02-26T00:38:16;93764.84;;;-9.07;77.68
84863;BME280;75117;43.224;76.776;2024-02-26T00:38:28;93748.13;;;-9.09;76.98
84863;BME280;75117;43.224;76.776;2024-02-26T00:38:41;93753.84;;;-9.07;77.41
84863;BME280;75117;43.224;76.776;2024-02-26T00:38:55;93757.19;;;-9.07;76.47
84863;BME280;75117;43.224;76.776;2024-02-26T00:39:08;93762.31;;;-9.07;77.09
84863;BME280;75117;43.224;76.776;2024-02-26T00:39:21;93756.41;;;-9.07;76.43
84863;BME280;75117;43.224;76.776;2024-02-26T00:39:33;93740.63;;;-9.17;76.61
84863;BME280;75117;43.224;76.776;2024-02-26T00:39:46;93757.97;;;-9.06;76.48
84863;BME280;75117;43.224;76.776;2024-02-26T00:39:59;93752.25;;;-9.08;77.34
84863;BME280;75117;43.224;76.776;2024-02-26T00:40:11;93754.63;;;-9.07;76.34
84863;BME280;75117;43.224;76.776;2024-02-26T00:40:24;93753.63;;;-9.06;76.87
84863;BME280;75117;43.224;76.776;2024-02-26T00:40:36;93750.28;;;-9.06;77.44
84863;BME280;75117;43.224;76.776;2024-02-26T00:40:49;93753.63;;;-9.06;77.41
84863;BME280;75117;43.224;76.776;2024-02-26T00:41:01;93751.88;;;-9.05;76.44
84863;BME280;75117;43.224;76.776;2024-02-26T00:41:13;93756.00;;;-9.04;76.89
84863;BME280;75117;43.224;76.776;2024-02-26T00:41:26;93752.66;;;-9.05;76.12
84863;BME280;75117;43.224;76.776;2024-02-26T00:41:40;93733.56;;;-9.15;76.95
84863;BME280;75117;43.224;76.776;2024-02-26T00:41:52;93749.50;;;-9.07;76.96
84863;BME280;75117;43.224;76.776;2024-02-26T00:42:05;93751.47;;;-9.02;76.92
84863;BME280;75117;43.224;76.776;2024-02-26T00:42:17;93750.09;;;-9.05;77.58
84863;BME280;75117;43.224;76.776;2024-02-26T00:42:30;93739.69;;;-9.03;77.60
84863;BME280;75117;43.224;76.776;2024-02-26T00:42:42;93751.47;;;-9.02;77.67
84863;BME280;75117;43.224;76.776;2024-02-26T00:42:57;93757.38;;;-9.02;76.69
84863;BME280;75117;43.224;76.776;2024-02-26T00:43:10;93755.41;;;-9.00;76.44
84863;BME280;75117;43.224;76.776;2024-02-26T00:43:22;93706.81;;;-9.33;76.47
84863;BME280;75117;43.224;76.776;2024-02-26T00:43:35;93752.84;;;-9.00;76.91
84863;BME280;75117;43.224;76.776;2024-02-26T00:43:50;93755.41;;;-9.00;77.15
84863;BME280;75117;43.224;76.776;2024-02-26T00:44:02;93767.41;;;-9.00;76.25
84863;BME280;75117;43.224;76.776;2024-02-26T00:44:14;93759.72;;;-9.00;76.78
84863;BME280;75117;43.224;76.776;2024-02-26T00:44:27;93749.69;;;-9.08;76.60
84863;BME280;75117;43.224;76.776;2024-02-26T00:44:39;93754.81;;;-9.02;76.94
84863;BME280;75117;43.224;76.776;2024-02-26T00:44:52;93757.19;;;-9.00;76.85
84863;BME280;75117;43.224;76.776;2024-02-26T00:45:04;93757.97;;;-9.00;76.75
84863;BME280;75117;43.224;76.776;2024-02-26T00:45:17;93758.94;;;-9.01;76.26
84863;BME280;75117;43.224;76.776;2024-02-26T00:45:30;93753.06;;;-9.01;76.59
84863;BME280;75117;43.224;76.776;2024-02-26T00:45:44;93759.94;;;-9.02;76.72
84863;BME280;75117;43.224;76.776;2024-02-26T00:45:59;93760.50;;;-9.00;76.84
84863;BME280;75117;43.224;76.776;2024-02-26T00:46:11;93751.28;;;-9.07;76.64
84863;BME280;75117;43.224;76.776;2024-02-26T00:46:23;93744.19;;;-9.12;77.01
84863;BME280;75117;43.224;76.776;2024-02-26T00:46:37;93755.59;;;-9.01;76.46
84863;BME280;75117;43.224;76.776;2024-02-26T00:46:49;93754.63;;;-9.00;77.08
84863;BME280;75117;43.224;76.776;2024-02-26T00:47:01;93758.94;;;-9.01;76.04
84863;BME280;75117;43.224;76.776;2024-02-26T00:47:14;93765.63;;;-9.00;76.49
84863;BME280;75117;43.224;76.776;2024-02-26T00:47:26;93761.50;;;-9.01;77.12
84863;BME280;75117;43.224;76.776;2024-02-26T00:47:39;93762.28;;;-9.00;76.82
84863;BME280;75117;43.224;76.776;2024-02-26T00:47:54;93755.59;;;-9.01;76.38
84863;BME280;75117;43.224;76.776;2024-02-26T00:48:06;93758.38;;;-9.03;76.81
84863;BME280;75117;43.224;76.776;2024-02-26T00:48:19;93766.63;;;-9.01;76.67
84863;BME280;75117;43.224;76.776;2024-02-26T00:48:32;93751.88;;;-9.05;77.39
84863;BME280;75117;43.224;76.776;2024-02-26T00:48:44;93758.38;;;-9.03;76.69
84863;BME280;75117;43.224;76.776;2024-02-26T00:48:56;93755.03;;;-9.03;77.25
84863;BME280;75117;43.224;76.776;2024-02-26T00:49:09;93764.84;;;-9.00;76.92
84863;BME280;75117;43.224;76.776;2024-02-26T00:49:21;93761.88;;;-9.04;77.13
84863;BME280;75117;43.224;76.776;2024-02-26T00:49:33;93760.72;;;-9.01;76.25
84863;BME280;75117;43.224;76.776;2024-02-26T00:49:46;93759.72;;;-9.00;75.90
84863;BME280;75117;43.224;76.776;2024-02-26T00:49:59;93758.16;;;-9.01;76.88
84863;BME280;75117;43.224;76.776;2024-02-26T00:50:11;93757.97;;;-9.00;76.41
84863;BME280;75117;43.224;76.776;2024-02-26T00:50:24;93763.06;;;-9.00;76.71
84863;BME280;75117;43.224;76.776;2024-02-26T00:50:36;93761.50;;;-9.01;76.03
84863;BME280;75117;43.224;76.776;2024-02-26T00:50:49;93762.28;;;-9.00;76.79
84863;BME280;75117;43.224;76.776;2024-02-26T00:51:01;93764.84;;;-9.00;77.00
84863;BME280;75117;43.224;76.776;2024-02-26T00:51:13;93766.03;;;-9.03;76.35
84863;BME280;75117;43.224;76.776;2024-02-26T00:51:27;93758.16;;;-9.01;76.49
84863;BME280;75117;43.224;76.776;2024-02-26T00:51:39;93764.84;;;-9.00;77.01
84863;BME280;75117;43.224;76.776;2024-02-26T00:51:52;93765.84;;;-9.01;76.54
84863;BME280;75117;43.224;76.776;2024-02-26T00:52:04;93738.47;;;-9.14;76.06
84863;BME280;75117;43.224;76.776;2024-02-26T00:52:17;93764.28;;;-9.02;76.60
84863;BME280;75117;43.224;76.776;2024-02-26T00:52:29;93759.34;;;-9.04;76.24
84863;BME280;75117;43.224;76.776;2024-02-26T00:52:41;93705.63;;;-9.37;76.66
84863;BME280;75117;43.224;76.776;2024-02-26T00:52:54;93755.78;;;-9.09;77.04
84863;BME280;75117;43.224;76.776;2024-02-26T00:53:06;93762.31;;;-9.07;76.97
84863;BME280;75117;43.224;76.776;2024-02-26T00:53:20;93764.06;;;-9.07;76.77
84863;BME280;75117;43.224;76.776;2024-02-26T00:53:33;93770.16;;;-9.08;75.95
84863;BME280;75117;43.224;76.776;2024-02-26T00:53:46;93759.13;;;-9.15;76.40
84863;BME280;75117;43.224;76.776;2024-02-26T00:53:58;93764.44;;;-9.10;76.83
84863;BME280;75117;43.224;76.776;2024-02-26T00:54:11;93766.44;;;-9.12;76.31
84863;BME280;75117;43.224;76.776;2024-02-26T00:54:23;93763.47;;;-9.16;76.27
84863;BME280;75117;43.224;76.776;2024-02-26T00:54:35;93768.19;;;-9.13;77.39
84863;BME280;75117;43.224;76.776;2024-02-26T00:54:48;93769.94;;;-9.13;76.00
84863;BME280;75117;43.224;76.776;2024-02-26T00:55:02;93760.91;;;-9.16;76.78
84863;BME280;75117;43.224;76.776;2024-02-26T00:55:14;93766.59;;;-9.14;76.03
84863;BME280;75117;43.224;76.776;2024-02-26T00:55:27;93769.94;;;-9.13;76.35
84863;BME280;75117;43.224;76.776;2024-02-26T00:55:39;93769.00;;;-9.12;76.89
84863;BME280;75117;43.224;76.776;2024-02-26T00:55:52;93764.84;;;-9.13;76.63
84863;BME280;75117;43.224;76.776;2024-02-26T00:56:04;93764.06;;;-9.14;77.26
84863;BME280;75117;43.224;76.776;2024-02-26T00:56:17;93770.72;;;-9.13;76.86
84863;BME280;75117;43.224;76.776;2024-02-26T00:56:29;93750.09;;;-9.25;76.36
84863;BME280;75117;43.224;76.776;2024-02-26T00:56:42;93772.72;;;-9.15;76.72
84863;BME280;75117;43.224;76.776;2024-02-26T00:56:54;93771.94;;;-9.15;77.02
84863;BME280;75117;43.224;76.776;2024-02-26T00:57:06;93760.13;;;-9.16;76.26
84863;BME280;75117;43.224;76.776;2024-02-26T00:57:19;93771.13;;;-9.16;76.36
84863;BME280;75117;43.224;76.776;2024-02-26T00:57:31;93770.34;;;-9.16;76.41
84863;BME280;75117;43.224;76.776;2024-02-26T00:57:44;93778.03;;;-9.16;77.53
84863;BME280;75117;43.224;76.776;2024-02-26T00:57:56;93774.28;;;-9.14;77.63
84863;BME280;75117;43.224;76.776;2024-02-26T00:58:09;93763.66;;;-9.17;76.98
84863;BME280;75117;43.224;76.776;2024-02-26T00:58:22;93767.03;;;-9.17;77.70
84863;BME280;75117;43.224;76.776;2024-02-26T00:58:34;93772.91;;;-9.16;76.54
84863;BME280;75117;43.224;76.776;2024-02-26T00:58:47;93764.47;;;-9.17;77.36
84863;BME280;75117;43.224;76.776;2024-02-26T00:59:00;93764.84;;;-9.20;77.37
84863;BME280;75117;43.224;76.776;2024-02-26T00:59:13;93768.38;;;-9.14;76.91
84863;BME280;75117;43.224;76.776;2024-02-26T00:59:25;93768.59;;;-9.16;77.67
84863;BME280;75117;43.224;76.776;2024-02-26T00:59:38;93755.78;;;-9.23;76.31
84863;BME280;75117;43.224;76.776;2024-02-26T00:59:50;93769.38;;;-9.15;77.39
84863;BME280;75117;43.224;76.776;2024-02-26T01:00:03;93770.34;;;-9.16;77.00
84863;BME280;75117;43.224;76.776;2024-02-26T01:00:16;93770.94;;;-9.14;76.81
84863;BME280;75117;43.224;76.776;2024-02-26T01:00:28;93777.63;;;-9.13;76.52
84863;BME280;75117;43.224;76.776;2024-02-26T01:00:41;93774.28;;;-9.14;77.30
84863;BME280;75117;43.224;76.776;2024-02-26T01:00:54;93756.97;;;-9.25;77.10
84863;BME280;75117;43.224;76.776;2024-02-26T01:01:06;93758.94;;;-9.21;77.10
84863;BME280;75117;43.224;76.776;2024-02-26T01:01:19;93770.34;;;-9.16;76.05
84863;BME280;75117;43.224;76.776;2024-02-26T01:01:31;93763.25;;;-9.14;75.93
84863;BME280;75117;43.224;76.776;2024-02-26T01:01:44;93785.28;;;-9.13;76.07
84863;BME280;75117;43.224;76.776;2024-02-26T01:01:56;93770.94;;;-9.14;76.04
84863;BME280;75117;43.224;76.776;2024-02-26T01:02:10;93773.50;;;-9.14;75.93
84863;BME280;75117;43.224;76.776;2024-02-26T01:02:23;93778.59;;;-9.14;77.16
84863;BME280;75117;43.224;76.776;2024-02-26T01:02:35;93733.13;;;-9.46;76.25
84863;BME280;75117;43.224;76.776;2024-02-26T01:02:48;93771.13;;;-9.16;76.28
84863;BME280;75117;43.224;76.776;2024-02-26T01:03:00;93768.97;;;-9.19;76.70
84863;BME280;75117;43.224;76.776;2024-02-26T01:03:13;93753.63;;;-9.26;75.97
84863;BME280;75117;43.224;76.776;2024-02-26T01:03:25;93755.41;;;-9.26;76.03
84863;BME280;75117;43.224;76.776;2024-02-26T01:03:38;93771.53;;;-9.19;76.86
84863;BME280;75117;43.224;76.776;2024-02-26T01:03:50;93774.47;;;-9.15;76.49
84863;BME280;75117;43.224;76.776;2024-02-26T01:04:02;93772.13;;;-9.17;76.96
84863;BME280;75117;43.224;76.776;2024-02-26T01:04:15;93761.28;;;-9.19;76.76
84863;BME280;75117;43.224;76.776;2024-02-26T01:04:27;93767.19;;;-9.18;76.01
84863;BME280;75117;43.224;76.776;2024-02-26T01:04:40;93752.44;;;-9.30;76.39
84863;BME280;75117;43.224;76.776;2024-02-26T01:04:52;93762.88;;;-9.25;76.49
84863;BME280;75117;43.224;76.776;2024-02-26T01:05:05;93757.56;;;-9.30;76.19
84863;BME280;75117;43.224;76.776;2024-02-26T01:05:18;93770.94;;;-9.21;76.23
84863;BME280;75117;43.224;76.776;2024-02-26T01:05:31;93767.41;;;-9.20;77.25
84863;BME280;75117;43.224;76.776;2024-02-26T01:05:43;93769.97;;;-9.20;76.69
84863;BME280;75117;43.224;76.776;2024-02-26T01:05:55;93766.78;;;-9.22;77.25
84863;BME280;75117;43.224;76.776;2024-02-26T01:06:08;93768.38;;;-9.21;76.37
84863;BME280;75117;43.224;76.776;2024-02-26T01:06:21;93766.00;;;-9.23;76.69